Plock, Poland
Current Conditions -  °F | °C
As of 9:30 PM on Tuesday 21 Oct 2014 (Local Time) from EPMO Reporting Station
Clear Clear  
Wind Chill: 50°   Ceiling: Unl
Heat Index: 50°   Visibility: 6mi
Dew Point: 50°   Wind: 6mph
Humidity: 100%   Direction: 160°SSE
Pressure: 29.65"   Gusts: NA
Location:  52.55°N, 19.7°E
Report Text: EPMO 211930Z 16005KT CAVOK 10/10 Q1004
Loading
Personal Weather Stations






























Interactive Weather Map
Tropical Storm Tracking
New forecast layout! Learn more

10-Day Weather Forecast

Advertisements
Track Severe Weather on mobile